sensor_id;sensor_type;location;lat;lon;timestamp;temperature;humidity
322;DHT22;148;51.480;7.208;2022-08-01T10:02:25;22.90;39.70
322;DHT22;148;51.480;7.208;2022-08-01T10:04:52;23.00;39.00
322;DHT22;148;51.480;7.208;2022-08-01T10:07:18;23.20;40.60
322;DHT22;148;51.480;7.208;2022-08-01T10:09:45;23.40;42.50
322;DHT22;148;51.480;7.208;2022-08-01T10:12:14;23.60;44.10
322;DHT22;148;51.480;7.208;2022-08-01T10:14:40;23.80;45.60
322;DHT22;148;51.480;7.208;2022-08-01T10:17:12;23.90;45.70
322;DHT22;148;51.480;7.208;2022-08-01T10:19:40;24.10;46.00
322;DHT22;148;51.480;7.208;2022-08-01T10:22:09;24.30;45.90
322;DHT22;148;51.480;7.208;2022-08-01T10:24:38;24.50;48.30
322;DHT22;148;51.480;7.208;2022-08-01T10:27:09;24.60;46.70
322;DHT22;148;51.480;7.208;2022-08-01T10:32:05;24.50;47.70
322;DHT22;148;51.480;7.208;2022-08-01T10:34:31;24.60;49.50
322;DHT22;148;51.480;7.208;2022-08-01T10:36:59;24.60;50.50
322;DHT22;148;51.480;7.208;2022-08-01T10:39:26;24.60;48.80
322;DHT22;148;51.480;7.208;2022-08-01T10:41:55;24.50;47.90
322;DHT22;148;51.480;7.208;2022-08-01T10:44:22;24.40;48.10
322;DHT22;148;51.480;7.208;2022-08-01T10:46:52;24.40;46.40
322;DHT22;148;51.480;7.208;2022-08-01T10:49:22;24.10;45.70
322;DHT22;148;51.480;7.208;2022-08-01T10:51:50;24.10;45.40
322;DHT22;148;51.480;7.208;2022-08-01T10:54:16;23.90;44.80
322;DHT22;148;51.480;7.208;2022-08-01T10:56:50;23.80;43.80
322;DHT22;148;51.480;7.208;2022-08-01T10:59:26;23.80;43.60
322;DHT22;148;51.480;7.208;2022-08-01T11:01:59;23.60;43.00
322;DHT22;148;51.480;7.208;2022-08-01T11:04:33;23.60;42.20
322;DHT22;148;51.480;7.208;2022-08-01T11:07:06;23.70;43.40
322;DHT22;148;51.480;7.208;2022-08-01T11:09:44;23.80;44.10
322;DHT22;148;51.480;7.208;2022-08-01T11:12:18;23.80;47.10
322;DHT22;148;51.480;7.208;2022-08-01T11:17:54;24.20;48.40
322;DHT22;148;51.480;7.208;2022-08-01T11:20:23;24.30;48.40
322;DHT22;148;51.480;7.208;2022-08-01T11:26:05;24.80;49.80
322;DHT22;148;51.480;7.208;2022-08-01T11:30:47;24.70;49.80
322;DHT22;148;51.480;7.208;2022-08-01T11:33:15;24.60;49.20
322;DHT22;148;51.480;7.208;2022-08-01T11:38:35;24.30;47.30
322;DHT22;148;51.480;7.208;2022-08-01T11:41:25;24.20;46.40
322;DHT22;148;51.480;7.208;2022-08-01T11:43:57;24.00;45.70
322;DHT22;148;51.480;7.208;2022-08-01T11:49:27;23.80;46.00
322;DHT22;148;51.480;7.208;2022-08-01T11:52:14;23.80;44.80
322;DHT22;148;51.480;7.208;2022-08-01T11:54:51;24.00;46.30
322;DHT22;148;51.480;7.208;2022-08-01T11:57:22;24.10;46.40
322;DHT22;148;51.480;7.208;2022-08-01T11:59:51;24.30;47.30
322;DHT22;148;51.480;7.208;2022-08-01T12:02:28;24.50;48.30
322;DHT22;148;51.480;7.208;2022-08-01T12:07:30;24.70;49.10
322;DHT22;148;51.480;7.208;2022-08-01T12:10:06;24.90;49.60
322;DHT22;148;51.480;7.208;2022-08-01T12:12:33;25.00;51.50
322;DHT22;148;51.480;7.208;2022-08-01T12:15:02;25.00;51.40
322;DHT22;148;51.480;7.208;2022-08-01T12:17:34;25.10;51.90
322;DHT22;148;51.480;7.208;2022-08-01T12:20:02;25.00;52.50
322;DHT22;148;51.480;7.208;2022-08-01T12:22:28;24.90;51.90
322;DHT22;148;51.480;7.208;2022-08-01T12:24:53;25.00;52.10
322;DHT22;148;51.480;7.208;2022-08-01T12:27:27;25.10;52.20
322;DHT22;148;51.480;7.208;2022-08-01T12:29:54;25.00;52.10
322;DHT22;148;51.480;7.208;2022-08-01T12:32:22;25.20;52.10
322;DHT22;148;51.480;7.208;2022-08-01T12:34:49;25.30;52.70
322;DHT22;148;51.480;7.208;2022-08-01T12:37:15;25.40;52.70
322;DHT22;148;51.480;7.208;2022-08-01T12:39:41;25.60;52.80
322;DHT22;148;51.480;7.208;2022-08-01T12:42:11;25.50;54.00
322;DHT22;148;51.480;7.208;2022-08-01T12:44:38;25.50;53.80
322;DHT22;148;51.480;7.208;2022-08-01T12:47:06;25.70;53.90
322;DHT22;148;51.480;7.208;2022-08-01T12:49:33;25.80;53.50
322;DHT22;148;51.480;7.208;2022-08-01T12:51:59;25.70;53.30
322;DHT22;148;51.480;7.208;2022-08-01T12:54:25;25.40;52.90
322;DHT22;148;51.480;7.208;2022-08-01T12:56:51;25.10;52.90
322;DHT22;148;51.480;7.208;2022-08-01T12:59:29;24.60;52.30
322;DHT22;148;51.480;7.208;2022-08-01T13:01:56;24.40;51.00
322;DHT22;148;51.480;7.208;2022-08-01T13:04:22;24.50;51.30
322;DHT22;148;51.480;7.208;2022-08-01T13:06:52;24.50;51.80
322;DHT22;148;51.480;7.208;2022-08-01T13:09:18;24.60;51.60
322;DHT22;148;51.480;7.208;2022-08-01T13:11:44;24.90;52.50
322;DHT22;148;51.480;7.208;2022-08-01T13:14:27;25.70;53.40
322;DHT22;148;51.480;7.208;2022-08-01T13:16:53;26.90;54.40
322;DHT22;148;51.480;7.208;2022-08-01T13:19:18;28.00;56.00
322;DHT22;148;51.480;7.208;2022-08-01T13:21:55;28.50;56.30
322;DHT22;148;51.480;7.208;2022-08-01T13:24:26;28.50;56.60
322;DHT22;148;51.480;7.208;2022-08-01T13:27:00;27.90;57.20
322;DHT22;148;51.480;7.208;2022-08-01T13:29:33;27.00;57.70
322;DHT22;148;51.480;7.208;2022-08-01T13:32:11;26.20;57.80
322;DHT22;148;51.480;7.208;2022-08-01T13:34:37;26.30;57.70
322;DHT22;148;51.480;7.208;2022-08-01T13:37:03;26.70;57.60
322;DHT22;148;51.480;7.208;2022-08-01T13:39:29;26.90;57.70
322;DHT22;148;51.480;7.208;2022-08-01T13:42:16;26.60;57.90
322;DHT22;148;51.480;7.208;2022-08-01T13:44:47;26.70;57.90
322;DHT22;148;51.480;7.208;2022-08-01T13:47:13;26.80;58.10
322;DHT22;148;51.480;7.208;2022-08-01T13:49:41;26.60;58.20
322;DHT22;148;51.480;7.208;2022-08-01T13:52:07;27.00;58.00
322;DHT22;148;51.480;7.208;2022-08-01T13:54:33;27.50;57.10
322;DHT22;148;51.480;7.208;2022-08-01T13:57:01;28.20;56.60
322;DHT22;148;51.480;7.208;2022-08-01T13:59:27;28.60;55.80
322;DHT22;148;51.480;7.208;2022-08-01T14:01:53;28.70;55.50
322;DHT22;148;51.480;7.208;2022-08-01T14:04:19;28.70;55.60
322;DHT22;148;51.480;7.208;2022-08-01T14:06:46;28.60;56.00
322;DHT22;148;51.480;7.208;2022-08-01T14:09:12;28.20;56.60
322;DHT22;148;51.480;7.208;2022-08-01T14:11:38;28.00;56.90
322;DHT22;148;51.480;7.208;2022-08-01T14:14:04;27.70;57.80
322;DHT22;148;51.480;7.208;2022-08-01T14:16:29;27.80;57.80
322;DHT22;148;51.480;7.208;2022-08-01T14:18:55;28.60;56.70
322;DHT22;148;51.480;7.208;2022-08-01T14:21:20;29.20;53.60
322;DHT22;148;51.480;7.208;2022-08-01T14:23:46;29.80;52.00
322;DHT22;148;51.480;7.208;2022-08-01T14:26:12;30.20;51.40
322;DHT22;148;51.480;7.208;2022-08-01T14:28:38;30.40;51.40
322;DHT22;148;51.480;7.208;2022-08-01T14:31:04;30.20;52.50
322;DHT22;148;51.480;7.208;2022-08-01T14:33:31;29.50;54.20
322;DHT22;148;51.480;7.208;2022-08-01T14:35:57;29.10;55.60
322;DHT22;148;51.480;7.208;2022-08-01T14:38:23;28.80;56.30
322;DHT22;148;51.480;7.208;2022-08-01T14:40:49;28.60;56.20
322;DHT22;148;51.480;7.208;2022-08-01T14:43:17;28.20;57.40
322;DHT22;148;51.480;7.208;2022-08-01T14:45:43;28.10;57.70
322;DHT22;148;51.480;7.208;2022-08-01T14:48:09;27.80;57.50
322;DHT22;148;51.480;7.208;2022-08-01T14:50:35;27.30;58.50
322;DHT22;148;51.480;7.208;2022-08-01T14:53:00;27.20;60.00
322;DHT22;148;51.480;7.208;2022-08-01T14:55:26;27.40;59.70
322;DHT22;148;51.480;7.208;2022-08-01T14:57:52;27.50;58.30
322;DHT22;148;51.480;7.208;2022-08-01T15:00:19;27.80;58.30
322;DHT22;148;51.480;7.208;2022-08-01T15:02:45;28.00;58.00
322;DHT22;148;51.480;7.208;2022-08-01T15:05:11;27.90;58.20
322;DHT22;148;51.480;7.208;2022-08-01T15:07:38;27.90;58.50
322;DHT22;148;51.480;7.208;2022-08-01T15:10:05;27.60;58.30
322;DHT22;148;51.480;7.208;2022-08-01T15:12:31;27.00;60.00
322;DHT22;148;51.480;7.208;2022-08-01T15:14:57;26.90;61.90
322;DHT22;148;51.480;7.208;2022-08-01T15:17:28;26.70;60.80
322;DHT22;148;51.480;7.208;2022-08-01T15:19:59;26.50;61.80
322;DHT22;148;51.480;7.208;2022-08-01T15:22:26;26.50;62.10
322;DHT22;148;51.480;7.208;2022-08-01T15:24:54;26.40;62.30
322;DHT22;148;51.480;7.208;2022-08-01T15:27:20;26.10;62.70
322;DHT22;148;51.480;7.208;2022-08-01T15:29:47;25.80;63.50
322;DHT22;148;51.480;7.208;2022-08-01T15:32:12;26.00;63.70
322;DHT22;148;51.480;7.208;2022-08-01T15:34:38;26.30;62.70
322;DHT22;148;51.480;7.208;2022-08-01T15:37:06;26.50;61.60
322;DHT22;148;51.480;7.208;2022-08-01T15:39:32;26.50;61.60
322;DHT22;148;51.480;7.208;2022-08-01T15:42:00;26.40;61.60
322;DHT22;148;51.480;7.208;2022-08-01T15:44:27;26.50;61.90
322;DHT22;148;51.480;7.208;2022-08-01T15:46:53;26.40;61.60
322;DHT22;148;51.480;7.208;2022-08-01T15:49:18;26.30;62.20
322;DHT22;148;51.480;7.208;2022-08-01T15:51:48;26.20;62.40
322;DHT22;148;51.480;7.208;2022-08-01T15:54:15;25.90;63.60
322;DHT22;148;51.480;7.208;2022-08-01T15:56:44;26.10;64.00
322;DHT22;148;51.480;7.208;2022-08-01T15:59:09;26.20;62.80
322;DHT22;148;51.480;7.208;2022-08-01T16:01:36;26.30;62.40
322;DHT22;148;51.480;7.208;2022-08-01T16:04:03;26.30;61.00
322;DHT22;148;51.480;7.208;2022-08-01T16:06:29;26.10;61.10
322;DHT22;148;51.480;7.208;2022-08-01T16:08:54;26.00;61.90
322;DHT22;148;51.480;7.208;2022-08-01T16:11:21;26.00;62.00
322;DHT22;148;51.480;7.208;2022-08-01T16:13:48;25.90;62.30
322;DHT22;148;51.480;7.208;2022-08-01T16:16:14;25.90;62.70
322;DHT22;148;51.480;7.208;2022-08-01T16:18:43;26.00;62.60
322;DHT22;148;51.480;7.208;2022-08-01T16:21:09;25.90;60.80
322;DHT22;148;51.480;7.208;2022-08-01T16:23:37;25.80;60.90
322;DHT22;148;51.480;7.208;2022-08-01T16:26:03;25.70;60.80
322;DHT22;148;51.480;7.208;2022-08-01T16:28:31;25.60;62.00
322;DHT22;148;51.480;7.208;2022-08-01T16:30:56;25.50;63.80
322;DHT22;148;51.480;7.208;2022-08-01T16:33:22;25.40;64.30
322;DHT22;148;51.480;7.208;2022-08-01T16:35:48;25.40;64.70
322;DHT22;148;51.480;7.208;2022-08-01T16:38:14;25.30;65.00
322;DHT22;148;51.480;7.208;2022-08-01T16:40:43;25.30;64.90
322;DHT22;148;51.480;7.208;2022-08-01T16:43:13;25.20;64.60
322;DHT22;148;51.480;7.208;2022-08-01T16:45:52;25.30;64.70
322;DHT22;148;51.480;7.208;2022-08-01T16:48:18;25.40;64.20
322;DHT22;148;51.480;7.208;2022-08-01T16:50:47;25.40;64.00
322;DHT22;148;51.480;7.208;2022-08-01T16:53:23;25.30;64.80
322;DHT22;148;51.480;7.208;2022-08-01T16:55:51;25.10;64.90
322;DHT22;148;51.480;7.208;2022-08-01T16:58:21;25.10;64.80
322;DHT22;148;51.480;7.208;2022-08-01T17:00:47;25.20;65.00
322;DHT22;148;51.480;7.208;2022-08-01T17:03:22;25.40;64.60
322;DHT22;148;51.480;7.208;2022-08-01T17:05:49;25.40;64.40
322;DHT22;148;51.480;7.208;2022-08-01T17:08:17;25.50;64.30
322;DHT22;148;51.480;7.208;2022-08-01T17:10:43;25.50;64.40
322;DHT22;148;51.480;7.208;2022-08-01T17:13:12;25.50;64.20
322;DHT22;148;51.480;7.208;2022-08-01T17:15:37;25.50;64.70
322;DHT22;148;51.480;7.208;2022-08-01T17:18:09;25.40;64.30
322;DHT22;148;51.480;7.208;2022-08-01T17:20:36;25.40;64.40
322;DHT22;148;51.480;7.208;2022-08-01T17:23:02;25.60;63.80
322;DHT22;148;51.480;7.208;2022-08-01T17:25:28;25.60;63.50
322;DHT22;148;51.480;7.208;2022-08-01T17:27:53;25.50;64.00
322;DHT22;148;51.480;7.208;2022-08-01T17:30:21;25.50;64.00
322;DHT22;148;51.480;7.208;2022-08-01T17:32:47;25.40;64.10
322;DHT22;148;51.480;7.208;2022-08-01T17:35:15;25.30;64.10
322;DHT22;148;51.480;7.208;2022-08-01T17:37:42;25.20;64.00
322;DHT22;148;51.480;7.208;2022-08-01T17:40:08;25.10;64.70
322;DHT22;148;51.480;7.208;2022-08-01T17:42:37;25.10;64.90
322;DHT22;148;51.480;7.208;2022-08-01T17:45:07;25.10;64.60
322;DHT22;148;51.480;7.208;2022-08-01T17:47:33;25.10;64.60
322;DHT22;148;51.480;7.208;2022-08-01T17:49:58;25.00;64.80
322;DHT22;148;51.480;7.208;2022-08-01T17:52:27;25.00;64.50
322;DHT22;148;51.480;7.208;2022-08-01T17:54:52;25.00;64.20
322;DHT22;148;51.480;7.208;2022-08-01T17:57:18;24.80;64.40
322;DHT22;148;51.480;7.208;2022-08-01T17:59:45;24.70;64.90
322;DHT22;148;51.480;7.208;2022-08-01T18:02:11;24.80;64.50
322;DHT22;148;51.480;7.208;2022-08-01T18:04:37;24.80;64.50
322;DHT22;148;51.480;7.208;2022-08-01T18:07:02;24.70;65.50
322;DHT22;148;51.480;7.208;2022-08-01T18:09:28;24.70;65.50
322;DHT22;148;51.480;7.208;2022-08-01T18:11:58;24.70;65.30
322;DHT22;148;51.480;7.208;2022-08-01T18:14:27;24.60;65.50
322;DHT22;148;51.480;7.208;2022-08-01T18:16:53;24.60;65.10
322;DHT22;148;51.480;7.208;2022-08-01T18:19:22;24.50;65.90
322;DHT22;148;51.480;7.208;2022-08-01T18:21:51;24.60;65.90
322;DHT22;148;51.480;7.208;2022-08-01T18:24:17;24.60;65.50
322;DHT22;148;51.480;7.208;2022-08-01T18:26:47;24.60;65.90
322;DHT22;148;51.480;7.208;2022-08-01T18:29:16;24.60;65.80
322;DHT22;148;51.480;7.208;2022-08-01T18:31:43;24.70;65.70
322;DHT22;148;51.480;7.208;2022-08-01T18:34:11;24.50;66.30
322;DHT22;148;51.480;7.208;2022-08-01T18:36:37;24.50;66.30
322;DHT22;148;51.480;7.208;2022-08-01T18:39:07;24.40;66.40
322;DHT22;148;51.480;7.208;2022-08-01T18:41:35;24.20;66.40
322;DHT22;148;51.480;7.208;2022-08-01T18:44:02;24.30;66.80
322;DHT22;148;51.480;7.208;2022-08-01T18:46:32;24.40;66.40
322;DHT22;148;51.480;7.208;2022-08-01T18:48:57;24.40;66.50
322;DHT22;148;51.480;7.208;2022-08-01T18:51:23;24.20;66.50
322;DHT22;148;51.480;7.208;2022-08-01T18:53:52;24.00;66.60
322;DHT22;148;51.480;7.208;2022-08-01T18:56:25;23.90;67.20
322;DHT22;148;51.480;7.208;2022-08-01T18:58:57;23.80;67.80
322;DHT22;148;51.480;7.208;2022-08-01T19:01:23;23.80;67.50
322;DHT22;148;51.480;7.208;2022-08-01T19:03:48;23.80;67.70
322;DHT22;148;51.480;7.208;2022-08-01T19:06:15;23.70;67.70
322;DHT22;148;51.480;7.208;2022-08-01T19:08:41;23.70;67.80
322;DHT22;148;51.480;7.208;2022-08-01T19:11:07;23.70;68.00
322;DHT22;148;51.480;7.208;2022-08-01T19:13:33;23.60;68.00
322;DHT22;148;51.480;7.208;2022-08-01T19:16:01;23.40;68.50
322;DHT22;148;51.480;7.208;2022-08-01T19:18:27;23.20;68.60
322;DHT22;148;51.480;7.208;2022-08-01T19:20:53;23.30;68.60
322;DHT22;148;51.480;7.208;2022-08-01T19:23:18;23.20;68.60
322;DHT22;148;51.480;7.208;2022-08-01T19:26:05;23.30;68.60
322;DHT22;148;51.480;7.208;2022-08-01T19:28:46;23.10;68.80
322;DHT22;148;51.480;7.208;2022-08-01T19:31:21;23.00;68.80
322;DHT22;148;51.480;7.208;2022-08-01T19:33:49;23.10;68.70
322;DHT22;148;51.480;7.208;2022-08-01T19:36:17;23.00;68.70
322;DHT22;148;51.480;7.208;2022-08-01T19:38:45;23.10;68.70
322;DHT22;148;51.480;7.208;2022-08-01T19:41:15;23.10;68.70
322;DHT22;148;51.480;7.208;2022-08-01T19:43:43;23.00;68.80
322;DHT22;148;51.480;7.208;2022-08-01T19:46:12;23.00;68.70
322;DHT22;148;51.480;7.208;2022-08-01T19:48:38;23.00;68.70
322;DHT22;148;51.480;7.208;2022-08-01T19:51:06;23.00;68.70
322;DHT22;148;51.480;7.208;2022-08-01T19:53:40;23.10;68.70
322;DHT22;148;51.480;7.208;2022-08-01T19:56:08;22.90;68.70
322;DHT22;148;51.480;7.208;2022-08-01T19:58:38;22.70;68.50
322;DHT22;148;51.480;7.208;2022-08-01T20:01:12;22.60;68.30
322;DHT22;148;51.480;7.208;2022-08-01T20:03:41;22.60;68.20
322;DHT22;148;51.480;7.208;2022-08-01T20:06:08;22.60;68.20
322;DHT22;148;51.480;7.208;2022-08-01T20:08:53;22.70;68.10
322;DHT22;148;51.480;7.208;2022-08-01T20:11:21;22.70;68.00
322;DHT22;148;51.480;7.208;2022-08-01T20:13:49;22.70;68.00
322;DHT22;148;51.480;7.208;2022-08-01T20:16:15;22.60;68.20
322;DHT22;148;51.480;7.208;2022-08-01T20:18:41;22.50;68.20
322;DHT22;148;51.480;7.208;2022-08-01T20:21:12;22.30;68.30
322;DHT22;148;51.480;7.208;2022-08-01T20:23:39;22.30;68.00
322;DHT22;148;51.480;7.208;2022-08-01T20:26:06;22.40;67.90
322;DHT22;148;51.480;7.208;2022-08-01T20:28:36;22.40;68.00
322;DHT22;148;51.480;7.208;2022-08-01T20:31:06;22.40;68.00
322;DHT22;148;51.480;7.208;2022-08-01T20:33:34;22.40;67.90
322;DHT22;148;51.480;7.208;2022-08-01T20:36:05;22.30;68.00
322;DHT22;148;51.480;7.208;2022-08-01T20:38:32;22.40;68.00
322;DHT22;148;51.480;7.208;2022-08-01T20:41:01;22.40;67.90
322;DHT22;148;51.480;7.208;2022-08-01T20:43:27;22.40;68.00
322;DHT22;148;51.480;7.208;2022-08-01T20:45:55;22.40;68.10
322;DHT22;148;51.480;7.208;2022-08-01T20:48:20;22.40;68.20
322;DHT22;148;51.480;7.208;2022-08-01T20:50:48;22.30;68.20
